sensor_id;sensor_type;location;lat;lon;timestamp;P1;durP1;ratioP1;P2;durP2;ratioP2
25667;SDS011;18003;-33.830;151.202;2022-07-11T00:01:23;2.55;;;1.70;;
25667;SDS011;18003;-33.830;151.202;2022-07-11T00:03:53;4.83;;;2.17;;
25667;SDS011;18003;-33.830;151.202;2022-07-11T00:06:23;3.40;;;2.10;;
25667;SDS011;18003;-33.830;151.202;2022-07-11T00:08:53;5.33;;;1.95;;
25667;SDS011;18003;-33.830;151.202;2022-07-11T00:11:23;4.40;;;2.10;;
25667;SDS011;18003;-33.830;151.202;2022-07-11T00:13:53;3.77;;;2.22;;
25667;SDS011;18003;-33.830;151.202;2022-07-11T00:16:24;4.12;;;2.12;;
25667;SDS011;18003;-33.830;151.202;2022-07-11T00:18:54;4.95;;;2.40;;
25667;SDS011;18003;-33.830;151.202;2022-07-11T00:21:24;4.83;;;2.40;;
25667;SDS011;18003;-33.830;151.202;2022-07-11T00:23:54;4.22;;;2.42;;
25667;SDS011;18003;-33.830;151.202;2022-07-11T00:26:24;4.10;;;2.27;;
25667;SDS011;18003;-33.830;151.202;2022-07-11T00:28:54;4.87;;;2.50;;
25667;SDS011;18003;-33.830;151.202;2022-07-11T00:31:24;5.35;;;2.77;;
25667;SDS011;18003;-33.830;151.202;2022-07-11T00:33:54;4.97;;;2.90;;
25667;SDS011;18003;-33.830;151.202;2022-07-11T00:36:24;7.15;;;3.27;;
25667;SDS011;18003;-33.830;151.202;2022-07-11T00:38:54;5.03;;;3.20;;
25667;SDS011;18003;-33.830;151.202;2022-07-11T00:41:24;5.12;;;3.10;;
25667;SDS011;18003;-33.830;151.202;2022-07-11T00:43:55;6.60;;;2.90;;
25667;SDS011;18003;-33.830;151.202;2022-07-11T00:46:26;6.15;;;2.65;;
25667;SDS011;18003;-33.830;151.202;2022-07-11T00:48:56;4.22;;;2.42;;
25667;SDS011;18003;-33.830;151.202;2022-07-11T00:51:27;4.03;;;2.47;;
25667;SDS011;18003;-33.830;151.202;2022-07-11T00:53:58;5.05;;;2.80;;
25667;SDS011;18003;-33.830;151.202;2022-07-11T00:56:30;5.15;;;2.40;;
25667;SDS011;18003;-33.830;151.202;2022-07-11T00:59:00;4.10;;;2.70;;
25667;SDS011;18003;-33.830;151.202;2022-07-11T01:01:31;5.00;;;2.60;;
25667;SDS011;18003;-33.830;151.202;2022-07-11T01:06:31;7.15;;;2.90;;
25667;SDS011;18003;-33.830;151.202;2022-07-11T01:09:01;4.15;;;2.40;;
25667;SDS011;18003;-33.830;151.202;2022-07-11T01:11:31;5.92;;;2.67;;
25667;SDS011;18003;-33.830;151.202;2022-07-11T01:14:01;4.95;;;2.42;;
25667;SDS011;18003;-33.830;151.202;2022-07-11T01:16:31;5.53;;;2.58;;
25667;SDS011;18003;-33.830;151.202;2022-07-11T01:19:01;3.67;;;2.47;;
25667;SDS011;18003;-33.830;151.202;2022-07-11T01:21:36;4.37;;;2.47;;
25667;SDS011;18003;-33.830;151.202;2022-07-11T01:24:08;4.05;;;2.45;;
25667;SDS011;18003;-33.830;151.202;2022-07-11T01:26:38;3.87;;;2.30;;
25667;SDS011;18003;-33.830;151.202;2022-07-11T01:29:09;4.55;;;2.37;;
25667;SDS011;18003;-33.830;151.202;2022-07-11T01:31:40;5.35;;;2.08;;
25667;SDS011;18003;-33.830;151.202;2022-07-11T01:34:10;4.92;;;2.30;;
25667;SDS011;18003;-33.830;151.202;2022-07-11T01:36:40;5.70;;;2.33;;
25667;SDS011;18003;-33.830;151.202;2022-07-11T01:39:10;4.28;;;2.05;;
25667;SDS011;18003;-33.830;151.202;2022-07-11T01:41:40;2.98;;;1.77;;
25667;SDS011;18003;-33.830;151.202;2022-07-11T01:44:10;6.90;;;2.30;;
25667;SDS011;18003;-33.830;151.202;2022-07-11T01:46:40;4.87;;;1.95;;
25667;SDS011;18003;-33.830;151.202;2022-07-11T01:49:10;3.50;;;1.75;;
25667;SDS011;18003;-33.830;151.202;2022-07-11T01:51:42;4.78;;;1.77;;
25667;SDS011;18003;-33.830;151.202;2022-07-11T01:54:12;3.30;;;2.05;;
25667;SDS011;18003;-33.830;151.202;2022-07-11T01:56:41;5.22;;;1.95;;
25667;SDS011;18003;-33.830;151.202;2022-07-11T01:59:13;6.22;;;2.00;;
25667;SDS011;18003;-33.830;151.202;2022-07-11T02:01:44;4.33;;;1.70;;
25667;SDS011;18003;-33.830;151.202;2022-07-11T02:04:15;2.67;;;1.57;;
25667;SDS011;18003;-33.830;151.202;2022-07-11T02:06:45;5.35;;;2.00;;
25667;SDS011;18003;-33.830;151.202;2022-07-11T02:09:15;3.50;;;1.72;;
25667;SDS011;18003;-33.830;151.202;2022-07-11T02:11:45;4.75;;;2.15;;
25667;SDS011;18003;-33.830;151.202;2022-07-11T02:14:15;6.40;;;2.15;;
25667;SDS011;18003;-33.830;151.202;2022-07-11T02:16:45;7.42;;;2.30;;
25667;SDS011;18003;-33.830;151.202;2022-07-11T02:19:15;5.08;;;2.00;;
25667;SDS011;18003;-33.830;151.202;2022-07-11T02:21:47;5.42;;;2.15;;
25667;SDS011;18003;-33.830;151.202;2022-07-11T02:24:16;5.25;;;1.98;;
25667;SDS011;18003;-33.830;151.202;2022-07-11T02:26:47;3.83;;;1.90;;
25667;SDS011;18003;-33.830;151.202;2022-07-11T02:29:17;5.97;;;2.17;;
25667;SDS011;18003;-33.830;151.202;2022-07-11T02:31:48;4.70;;;2.15;;
25667;SDS011;18003;-33.830;151.202;2022-07-11T02:34:18;5.53;;;2.30;;
25667;SDS011;18003;-33.830;151.202;2022-07-11T02:36:48;5.22;;;2.33;;
25667;SDS011;18003;-33.830;151.202;2022-07-11T02:39:18;4.55;;;2.08;;
25667;SDS011;18003;-33.830;151.202;2022-07-11T02:41:48;4.92;;;2.40;;
25667;SDS011;18003;-33.830;151.202;2022-07-11T02:44:18;4.72;;;2.47;;
25667;SDS011;18003;-33.830;151.202;2022-07-11T02:46:48;5.72;;;2.70;;
25667;SDS011;18003;-33.830;151.202;2022-07-11T02:49:18;6.10;;;2.98;;
25667;SDS011;18003;-33.830;151.202;2022-07-11T02:51:48;6.33;;;3.08;;
25667;SDS011;18003;-33.830;151.202;2022-07-11T02:54:23;3.77;;;2.60;;
25667;SDS011;18003;-33.830;151.202;2022-07-11T02:56:49;7.50;;;3.00;;
25667;SDS011;18003;-33.830;151.202;2022-07-11T02:59:19;4.20;;;2.83;;
25667;SDS011;18003;-33.830;151.202;2022-07-11T03:01:50;4.85;;;2.50;;
25667;SDS011;18003;-33.830;151.202;2022-07-11T03:04:20;4.43;;;2.50;;
25667;SDS011;18003;-33.830;151.202;2022-07-11T03:06:50;5.67;;;3.00;;
25667;SDS011;18003;-33.830;151.202;2022-07-11T03:09:20;5.65;;;3.00;;
25667;SDS011;18003;-33.830;151.202;2022-07-11T03:11:50;6.37;;;2.90;;
25667;SDS011;18003;-33.830;151.202;2022-07-11T03:14:20;5.60;;;3.00;;
25667;SDS011;18003;-33.830;151.202;2022-07-11T03:16:50;5.40;;;3.45;;
25667;SDS011;18003;-33.830;151.202;2022-07-11T03:19:21;6.17;;;3.15;;
25667;SDS011;18003;-33.830;151.202;2022-07-11T03:21:51;5.78;;;3.08;;
25667;SDS011;18003;-33.830;151.202;2022-07-11T03:24:21;5.35;;;3.20;;
25667;SDS011;18003;-33.830;151.202;2022-07-11T03:26:51;7.70;;;3.72;;
25667;SDS011;18003;-33.830;151.202;2022-07-11T03:29:21;5.33;;;3.05;;
25667;SDS011;18003;-33.830;151.202;2022-07-11T03:31:51;4.87;;;2.70;;
25667;SDS011;18003;-33.830;151.202;2022-07-11T03:34:21;4.55;;;2.70;;
25667;SDS011;18003;-33.830;151.202;2022-07-11T03:36:51;7.97;;;2.65;;
25667;SDS011;18003;-33.830;151.202;2022-07-11T03:39:21;5.62;;;2.30;;
25667;SDS011;18003;-33.830;151.202;2022-07-11T03:41:51;6.47;;;2.40;;
25667;SDS011;18003;-33.830;151.202;2022-07-11T03:44:21;8.10;;;2.60;;
25667;SDS011;18003;-33.830;151.202;2022-07-11T03:46:51;6.03;;;2.37;;
25667;SDS011;18003;-33.830;151.202;2022-07-11T03:49:21;6.75;;;2.30;;
25667;SDS011;18003;-33.830;151.202;2022-07-11T03:51:52;8.63;;;2.40;;
25667;SDS011;18003;-33.830;151.202;2022-07-11T03:54:22;8.35;;;1.85;;
25667;SDS011;18003;-33.830;151.202;2022-07-11T03:56:52;5.15;;;1.98;;
25667;SDS011;18003;-33.830;151.202;2022-07-11T03:59:22;4.85;;;1.98;;
25667;SDS011;18003;-33.830;151.202;2022-07-11T04:01:52;4.33;;;1.87;;
25667;SDS011;18003;-33.830;151.202;2022-07-11T04:04:23;5.08;;;1.92;;
25667;SDS011;18003;-33.830;151.202;2022-07-11T04:06:53;4.92;;;1.82;;
25667;SDS011;18003;-33.830;151.202;2022-07-11T04:09:23;3.72;;;1.70;;
25667;SDS011;18003;-33.830;151.202;2022-07-11T04:11:53;4.47;;;1.62;;
25667;SDS011;18003;-33.830;151.202;2022-07-11T04:14:23;5.83;;;1.77;;
25667;SDS011;18003;-33.830;151.202;2022-07-11T04:16:53;5.40;;;2.00;;
25667;SDS011;18003;-33.830;151.202;2022-07-11T04:19:23;5.12;;;1.62;;
25667;SDS011;18003;-33.830;151.202;2022-07-11T04:21:53;3.67;;;1.80;;
25667;SDS011;18003;-33.830;151.202;2022-07-11T04:24:23;4.12;;;1.60;;
25667;SDS011;18003;-33.830;151.202;2022-07-11T04:26:53;4.35;;;1.60;;
25667;SDS011;18003;-33.830;151.202;2022-07-11T04:29:23;4.05;;;1.52;;
25667;SDS011;18003;-33.830;151.202;2022-07-11T04:31:53;4.83;;;1.50;;
25667;SDS011;18003;-33.830;151.202;2022-07-11T04:34:23;5.53;;;1.90;;
25667;SDS011;18003;-33.830;151.202;2022-07-11T04:36:53;5.22;;;1.85;;
25667;SDS011;18003;-33.830;151.202;2022-07-11T04:39:23;5.15;;;2.30;;
25667;SDS011;18003;-33.830;151.202;2022-07-11T04:41:54;8.28;;;2.45;;
25667;SDS011;18003;-33.830;151.202;2022-07-11T04:44:32;6.20;;;2.35;;
25667;SDS011;18003;-33.830;151.202;2022-07-11T04:47:02;5.47;;;2.45;;
25667;SDS011;18003;-33.830;151.202;2022-07-11T04:49:32;7.95;;;2.30;;
25667;SDS011;18003;-33.830;151.202;2022-07-11T04:52:02;8.05;;;2.80;;
25667;SDS011;18003;-33.830;151.202;2022-07-11T04:54:33;5.73;;;2.20;;
25667;SDS011;18003;-33.830;151.202;2022-07-11T04:57:03;6.87;;;2.75;;
25667;SDS011;18003;-33.830;151.202;2022-07-11T04:59:33;5.45;;;2.55;;
25667;SDS011;18003;-33.830;151.202;2022-07-11T05:02:03;4.50;;;2.70;;
25667;SDS011;18003;-33.830;151.202;2022-07-11T05:04:35;6.12;;;2.90;;
25667;SDS011;18003;-33.830;151.202;2022-07-11T05:07:06;7.72;;;3.40;;
25667;SDS011;18003;-33.830;151.202;2022-07-11T05:09:36;7.70;;;3.22;;
25667;SDS011;18003;-33.830;151.202;2022-07-11T05:12:07;8.58;;;3.15;;
25667;SDS011;18003;-33.830;151.202;2022-07-11T05:14:37;8.43;;;2.58;;
25667;SDS011;18003;-33.830;151.202;2022-07-11T05:17:07;5.75;;;2.72;;
25667;SDS011;18003;-33.830;151.202;2022-07-11T05:19:37;5.08;;;2.47;;
25667;SDS011;18003;-33.830;151.202;2022-07-11T05:22:10;3.98;;;2.20;;
25667;SDS011;18003;-33.830;151.202;2022-07-11T05:24:40;6.03;;;2.20;;
25667;SDS011;18003;-33.830;151.202;2022-07-11T05:27:10;4.83;;;2.15;;
25667;SDS011;18003;-33.830;151.202;2022-07-11T05:29:40;4.85;;;2.27;;
25667;SDS011;18003;-33.830;151.202;2022-07-11T05:32:10;5.75;;;2.20;;
25667;SDS011;18003;-33.830;151.202;2022-07-11T05:34:40;4.87;;;1.85;;
25667;SDS011;18003;-33.830;151.202;2022-07-11T05:37:16;6.20;;;2.15;;
25667;SDS011;18003;-33.830;151.202;2022-07-11T05:39:48;4.40;;;2.10;;
25667;SDS011;18003;-33.830;151.202;2022-07-11T05:42:18;4.85;;;1.90;;
25667;SDS011;18003;-33.830;151.202;2022-07-11T05:44:48;6.00;;;2.08;;
25667;SDS011;18003;-33.830;151.202;2022-07-11T05:47:18;5.87;;;1.80;;
25667;SDS011;18003;-33.830;151.202;2022-07-11T05:49:48;4.42;;;1.80;;
25667;SDS011;18003;-33.830;151.202;2022-07-11T05:52:18;5.40;;;1.98;;
25667;SDS011;18003;-33.830;151.202;2022-07-11T05:54:48;3.12;;;1.70;;
25667;SDS011;18003;-33.830;151.202;2022-07-11T05:57:18;2.60;;;1.70;;
25667;SDS011;18003;-33.830;151.202;2022-07-11T05:59:48;6.22;;;2.55;;
25667;SDS011;18003;-33.830;151.202;2022-07-11T06:02:18;4.85;;;2.10;;
25667;SDS011;18003;-33.830;151.202;2022-07-11T06:04:48;3.65;;;2.15;;
25667;SDS011;18003;-33.830;151.202;2022-07-11T06:07:18;5.22;;;2.35;;
25667;SDS011;18003;-33.830;151.202;2022-07-11T06:10:06;5.55;;;2.70;;
25667;SDS011;18003;-33.830;151.202;2022-07-11T06:12:36;4.65;;;2.40;;
25667;SDS011;18003;-33.830;151.202;2022-07-11T06:15:08;3.65;;;2.45;;
25667;SDS011;18003;-33.830;151.202;2022-07-11T06:17:38;4.60;;;2.30;;
25667;SDS011;18003;-33.830;151.202;2022-07-11T06:20:08;4.67;;;2.40;;
25667;SDS011;18003;-33.830;151.202;2022-07-11T06:22:38;4.67;;;2.22;;
25667;SDS011;18003;-33.830;151.202;2022-07-11T06:25:08;3.77;;;2.05;;
25667;SDS011;18003;-33.830;151.202;2022-07-11T06:27:38;3.85;;;2.20;;
25667;SDS011;18003;-33.830;151.202;2022-07-11T06:30:08;4.83;;;2.20;;
25667;SDS011;18003;-33.830;151.202;2022-07-11T06:32:39;3.55;;;2.17;;
25667;SDS011;18003;-33.830;151.202;2022-07-11T06:35:09;5.00;;;2.20;;
25667;SDS011;18003;-33.830;151.202;2022-07-11T06:37:39;6.08;;;2.00;;
25667;SDS011;18003;-33.830;151.202;2022-07-11T06:40:10;6.17;;;2.00;;
25667;SDS011;18003;-33.830;151.202;2022-07-11T06:42:41;4.67;;;1.90;;
25667;SDS011;18003;-33.830;151.202;2022-07-11T06:45:11;3.77;;;2.00;;
25667;SDS011;18003;-33.830;151.202;2022-07-11T06:47:42;4.33;;;2.20;;
25667;SDS011;18003;-33.830;151.202;2022-07-11T06:50:12;5.50;;;2.60;;
25667;SDS011;18003;-33.830;151.202;2022-07-11T06:52:42;6.17;;;2.52;;
25667;SDS011;18003;-33.830;151.202;2022-07-11T06:55:13;3.45;;;2.20;;
25667;SDS011;18003;-33.830;151.202;2022-07-11T06:57:43;5.72;;;2.47;;
25667;SDS011;18003;-33.830;151.202;2022-07-11T07:00:13;7.67;;;2.80;;
25667;SDS011;18003;-33.830;151.202;2022-07-11T07:02:44;5.05;;;2.98;;
25667;SDS011;18003;-33.830;151.202;2022-07-11T07:05:14;6.90;;;3.08;;
25667;SDS011;18003;-33.830;151.202;2022-07-11T07:07:44;5.42;;;3.70;;
25667;SDS011;18003;-33.830;151.202;2022-07-11T07:10:14;7.28;;;4.45;;
25667;SDS011;18003;-33.830;151.202;2022-07-11T07:12:45;19.55;;;4.72;;
25667;SDS011;18003;-33.830;151.202;2022-07-11T07:15:15;33.18;;;5.35;;
25667;SDS011;18003;-33.830;151.202;2022-07-11T07:17:45;14.83;;;4.62;;
25667;SDS011;18003;-33.830;151.202;2022-07-11T07:20:15;12.45;;;5.25;;
25667;SDS011;18003;-33.830;151.202;2022-07-11T07:22:45;9.85;;;5.20;;
25667;SDS011;18003;-33.830;151.202;2022-07-11T07:25:15;10.20;;;5.83;;
25667;SDS011;18003;-33.830;151.202;2022-07-11T07:27:45;15.50;;;6.20;;
25667;SDS011;18003;-33.830;151.202;2022-07-11T07:30:15;9.68;;;5.60;;
25667;SDS011;18003;-33.830;151.202;2022-07-11T07:32:45;12.55;;;5.62;;
25667;SDS011;18003;-33.830;151.202;2022-07-11T07:35:15;11.70;;;5.60;;
25667;SDS011;18003;-33.830;151.202;2022-07-11T07:37:45;8.63;;;5.15;;
25667;SDS011;18003;-33.830;151.202;2022-07-11T07:40:16;6.90;;;4.77;;
25667;SDS011;18003;-33.830;151.202;2022-07-11T07:42:46;8.95;;;4.33;;
25667;SDS011;18003;-33.830;151.202;2022-07-11T07:45:16;7.22;;;4.17;;
25667;SDS011;18003;-33.830;151.202;2022-07-11T07:47:46;5.20;;;3.80;;
25667;SDS011;18003;-33.830;151.202;2022-07-11T07:50:16;7.45;;;3.70;;
25667;SDS011;18003;-33.830;151.202;2022-07-11T07:52:46;6.42;;;3.95;;
25667;SDS011;18003;-33.830;151.202;2022-07-11T07:55:16;7.53;;;4.00;;
25667;SDS011;18003;-33.830;151.202;2022-07-11T07:57:46;5.05;;;3.35;;
25667;SDS011;18003;-33.830;151.202;2022-07-11T08:00:16;6.00;;;3.80;;
25667;SDS011;18003;-33.830;151.202;2022-07-11T08:03:03;6.15;;;3.42;;
25667;SDS011;18003;-33.830;151.202;2022-07-11T08:05:35;8.40;;;3.62;;
25667;SDS011;18003;-33.830;151.202;2022-07-11T08:08:05;5.60;;;3.60;;
25667;SDS011;18003;-33.830;151.202;2022-07-11T08:10:35;6.70;;;3.45;;
25667;SDS011;18003;-33.830;151.202;2022-07-11T08:13:05;6.80;;;3.55;;
25667;SDS011;18003;-33.830;151.202;2022-07-11T08:15:36;5.75;;;3.60;;
25667;SDS011;18003;-33.830;151.202;2022-07-11T08:18:06;4.93;;;3.63;;
25667;SDS011;18003;-33.830;151.202;2022-07-11T08:20:36;6.05;;;4.10;;
25667;SDS011;18003;-33.830;151.202;2022-07-11T08:23:06;6.97;;;4.47;;
25667;SDS011;18003;-33.830;151.202;2022-07-11T08:25:36;7.35;;;4.62;;
25667;SDS011;18003;-33.830;151.202;2022-07-11T08:28:07;7.05;;;4.65;;
25667;SDS011;18003;-33.830;151.202;2022-07-11T08:30:37;7.72;;;4.85;;
25667;SDS011;18003;-33.830;151.202;2022-07-11T08:33:07;6.08;;;4.60;;
25667;SDS011;18003;-33.830;151.202;2022-07-11T08:35:37;9.00;;;4.92;;
25667;SDS011;18003;-33.830;151.202;2022-07-11T08:38:07;6.87;;;4.40;;
25667;SDS011;18003;-33.830;151.202;2022-07-11T08:40:40;7.50;;;4.90;;
25667;SDS011;18003;-33.830;151.202;2022-07-11T08:43:16;6.70;;;5.08;;
25667;SDS011;18003;-33.830;151.202;2022-07-11T08:45:46;10.05;;;5.60;;
25667;SDS011;18003;-33.830;151.202;2022-07-11T08:48:16;6.83;;;5.12;;
25667;SDS011;18003;-33.830;151.202;2022-07-11T08:50:49;6.85;;;5.35;;
25667;SDS011;18003;-33.830;151.202;2022-07-11T08:53:19;7.70;;;5.00;;
25667;SDS011;18003;-33.830;151.202;2022-07-11T08:55:48;5.95;;;4.87;;
25667;SDS011;18003;-33.830;151.202;2022-07-11T08:58:19;7.28;;;5.08;;
25667;SDS011;18003;-33.830;151.202;2022-07-11T09:00:51;7.30;;;5.22;;
25667;SDS011;18003;-33.830;151.202;2022-07-11T09:03:21;7.90;;;5.10;;
25667;SDS011;18003;-33.830;151.202;2022-07-11T09:05:52;7.25;;;5.12;;
25667;SDS011;18003;-33.830;151.202;2022-07-11T09:08:22;6.62;;;5.10;;
25667;SDS011;18003;-33.830;151.202;2022-07-11T09:10:53;7.60;;;5.42;;
25667;SDS011;18003;-33.830;151.202;2022-07-11T09:13:27;7.80;;;5.47;;
25667;SDS011;18003;-33.830;151.202;2022-07-11T09:16:03;6.03;;;4.90;;
25667;SDS011;18003;-33.830;151.202;2022-07-11T09:18:36;6.05;;;4.85;;
25667;SDS011;18003;-33.830;151.202;2022-07-11T09:21:07;6.55;;;4.70;;
25667;SDS011;18003;-33.830;151.202;2022-07-11T09:23:58;6.95;;;4.90;;
25667;SDS011;18003;-33.830;151.202;2022-07-11T09:26:46;7.00;;;5.10;;
25667;SDS011;18003;-33.830;151.202;2022-07-11T09:29:17;6.90;;;5.00;;
25667;SDS011;18003;-33.830;151.202;2022-07-11T09:31:50;8.35;;;5.55;;
25667;SDS011;18003;-33.830;151.202;2022-07-11T09:34:20;9.48;;;6.17;;
25667;SDS011;18003;-33.830;151.202;2022-07-11T09:36:52;6.17;;;5.45;;
25667;SDS011;18003;-33.830;151.202;2022-07-11T09:39:27;7.17;;;5.70;;
25667;SDS011;18003;-33.830;151.202;2022-07-11T09:41:57;7.42;;;5.28;;
25667;SDS011;18003;-33.830;151.202;2022-07-11T09:44:28;8.93;;;5.70;;
25667;SDS011;18003;-33.830;151.202;2022-07-11T09:47:00;7.92;;;5.30;;
25667;SDS011;18003;-33.830;151.202;2022-07-11T09:49:31;9.37;;;5.33;;
25667;SDS011;18003;-33.830;151.202;2022-07-11T09:52:09;8.60;;;5.42;;
25667;SDS011;18003;-33.830;151.202;2022-07-11T09:54:59;7.10;;;5.12;;
25667;SDS011;18003;-33.830;151.202;2022-07-11T09:57:32;6.87;;;5.08;;
25667;SDS011;18003;-33.830;151.202;2022-07-11T10:00:03;6.90;;;5.28;;
25667;SDS011;18003;-33.830;151.202;2022-07-11T10:02:38;5.97;;;5.20;;
25667;SDS011;18003;-33.830;151.202;2022-07-11T10:05:08;7.47;;;5.58;;
25667;SDS011;18003;-33.830;151.202;2022-07-11T10:07:39;7.17;;;5.90;;
25667;SDS011;18003;-33.830;151.202;2022-07-11T10:10:09;6.60;;;5.35;;
25667;SDS011;18003;-33.830;151.202;2022-07-11T10:12:39;7.55;;;5.67;;
25667;SDS011;18003;-33.830;151.202;2022-07-11T10:15:10;7.65;;;5.87;;
25667;SDS011;18003;-33.830;151.202;2022-07-11T10:23:20;9.98;;;7.70;;
25667;SDS011;18003;-33.830;151.202;2022-07-11T10:28:45;11.03;;;8.83;;
25667;SDS011;18003;-33.830;151.202;2022-07-11T10:31:18;11.90;;;9.33;;
25667;SDS011;18003;-33.830;151.202;2022-07-11T10:34:10;12.18;;;9.73;;
25667;SDS011;18003;-33.830;151.202;2022-07-11T10:36:43;13.75;;;9.80;;
25667;SDS011;18003;-33.830;151.202;2022-07-11T10:39:16;12.23;;;10.03;;
25667;SDS011;18003;-33.830;151.202;2022-07-11T10:41:48;12.07;;;8.85;;
25667;SDS011;18003;-33.830;151.202;2022-07-11T10:44:18;11.93;;;8.80;;
25667;SDS011;18003;-33.830;151.202;2022-07-11T10:46:49;11.22;;;9.05;;
25667;SDS011;18003;-33.830;151.202;2022-07-11T10:49:32;10.85;;;8.48;;
25667;SDS011;18003;-33.830;151.202;2022-07-11T10:59:57;9.98;;;7.55;;
25667;SDS011;18003;-33.830;151.202;2022-07-11T11:03:09;8.63;;;7.33;;
25667;SDS011;18003;-33.830;151.202;2022-07-11T11:05:46;10.58;;;7.30;;
25667;SDS011;18003;-33.830;151.202;2022-07-11T11:16:49;7.97;;;6.12;;
25667;SDS011;18003;-33.830;151.202;2022-07-11T11:22:16;9.13;;;5.92;;
25667;SDS011;18003;-33.830;151.202;2022-07-11T11:24:48;7.72;;;5.70;;
25667;SDS011;18003;-33.830;151.202;2022-07-11T11:27:22;7.10;;;5.42;;
25667;SDS011;18003;-33.830;151.202;2022-07-11T11:29:53;7.40;;;5.45;;
25667;SDS011;18003;-33.830;151.202;2022-07-11T11:32:28;7.00;;;5.05;;
25667;SDS011;18003;-33.830;151.202;2022-07-11T11:35:04;8.38;;;5.20;;
25667;SDS011;18003;-33.830;151.202;2022-07-11T11:37:35;7.83;;;5.40;;
25667;SDS011;18003;-33.830;151.202;2022-07-11T11:40:05;7.83;;;5.00;;
25667;SDS011;18003;-33.830;151.202;2022-07-11T11:42:36;7.20;;;5.03;;
25667;SDS011;18003;-33.830;151.202;2022-07-11T11:45:07;7.53;;;5.20;;
25667;SDS011;18003;-33.830;151.202;2022-07-11T11:50:08;8.35;;;5.05;;
25667;SDS011;18003;-33.830;151.202;2022-07-11T11:52:38;8.50;;;4.80;;
25667;SDS011;18003;-33.830;151.202;2022-07-11T11:55:08;8.75;;;5.17;;
25667;SDS011;18003;-33.830;151.202;2022-07-11T11:57:38;7.55;;;4.83;;
25667;SDS011;18003;-33.830;151.202;2022-07-11T12:00:19;8.15;;;5.20;;
25667;SDS011;18003;-33.830;151.202;2022-07-11T12:02:50;5.90;;;5.00;;
25667;SDS011;18003;-33.830;151.202;2022-07-11T12:05:20;8.50;;;5.08;;
25667;SDS011;18003;-33.830;151.202;2022-07-11T12:07:50;7.87;;;5.12;;
25667;SDS011;18003;-33.830;151.202;2022-07-11T12:10:20;9.48;;;5.22;;
25667;SDS011;18003;-33.830;151.202;2022-07-11T12:12:50;7.42;;;4.85;;
25667;SDS011;18003;-33.830;151.202;2022-07-11T12:15:25;7.03;;;4.95;;
25667;SDS011;18003;-33.830;151.202;2022-07-11T12:17:56;6.08;;;4.70;;
25667;SDS011;18003;-33.830;151.202;2022-07-11T12:20:37;6.15;;;4.72;;
25667;SDS011;18003;-33.830;151.202;2022-07-11T12:23:10;7.53;;;4.40;;
25667;SDS011;18003;-33.830;151.202;2022-07-11T12:25:41;6.10;;;4.42;;
25667;SDS011;18003;-33.830;151.202;2022-07-11T12:28:11;6.62;;;4.45;;
25667;SDS011;18003;-33.830;151.202;2022-07-11T12:30:41;7.45;;;5.10;;
25667;SDS011;18003;-33.830;151.202;2022-07-11T12:33:11;7.87;;;5.62;;
25667;SDS011;18003;-33.830;151.202;2022-07-11T12:35:55;7.78;;;5.03;;
25667;SDS011;18003;-33.830;151.202;2022-07-11T12:38:29;8.05;;;5.10;;
25667;SDS011;18003;-33.830;151.202;2022-07-11T12:41:15;6.00;;;4.62;;
25667;SDS011;18003;-33.830;151.202;2022-07-11T12:43:53;6.25;;;5.35;;
25667;SDS011;18003;-33.830;151.202;2022-07-11T12:46:37;7.22;;;5.12;;
25667;SDS011;18003;-33.830;151.202;2022-07-11T12:49:08;7.40;;;5.50;;
25667;SDS011;18003;-33.830;151.202;2022-07-11T12:54:14;7.90;;;5.37;;
25667;SDS011;18003;-33.830;151.202;2022-07-11T12:59:18;6.45;;;5.62;;
25667;SDS011;18003;-33.830;151.202;2022-07-11T13:01:54;8.68;;;5.42;;
25667;SDS011;18003;-33.830;151.202;2022-07-11T13:04:28;7.22;;;4.95;;
25667;SDS011;18003;-33.830;151.202;2022-07-11T13:07:22;8.53;;;5.37;;
25667;SDS011;18003;-33.830;151.202;2022-07-11T13:10:16;8.00;;;5.22;;
25667;SDS011;18003;-33.830;151.202;2022-07-11T13:15:12;7.03;;;5.53;;
25667;SDS011;18003;-33.830;151.202;2022-07-11T13:20:22;6.80;;;5.00;;
25667;SDS011;18003;-33.830;151.202;2022-07-11T13:22:54;9.53;;;5.33;;
25667;SDS011;18003;-33.830;151.202;2022-07-11T13:25:25;9.45;;;5.30;;
25667;SDS011;18003;-33.830;151.202;2022-07-11T13:27:56;7.92;;;5.05;;
25667;SDS011;18003;-33.830;151.202;2022-07-11T13:30:26;6.22;;;4.83;;
25667;SDS011;18003;-33.830;151.202;2022-07-11T13:32:57;6.78;;;4.67;;
25667;SDS011;18003;-33.830;151.202;2022-07-11T13:35:27;8.40;;;5.00;;
25667;SDS011;18003;-33.830;151.202;2022-07-11T13:37:57;6.97;;;4.85;;
25667;SDS011;18003;-33.830;151.202;2022-07-11T13:40:28;7.45;;;4.90;;
25667;SDS011;18003;-33.830;151.202;2022-07-11T13:42:59;8.05;;;4.62;;
25667;SDS011;18003;-33.830;151.202;2022-07-11T13:45:29;7.05;;;4.72;;
25667;SDS011;18003;-33.830;151.202;2022-07-11T13:47:59;6.62;;;4.75;;
25667;SDS011;18003;-33.830;151.202;2022-07-11T13:50:29;7.62;;;5.12;;
25667;SDS011;18003;-33.830;151.202;2022-07-11T13:52:59;6.03;;;4.45;;
25667;SDS011;18003;-33.830;151.202;2022-07-11T13:55:29;9.23;;;5.40;;
25667;SDS011;18003;-33.830;151.202;2022-07-11T13:57:59;7.53;;;5.25;;
25667;SDS011;18003;-33.830;151.202;2022-07-11T14:00:29;6.08;;;4.50;;
25667;SDS011;18003;-33.830;151.202;2022-07-11T14:02:59;8.03;;;4.90;;
25667;SDS011;18003;-33.830;151.202;2022-07-11T14:05:30;7.95;;;4.83;;
25667;SDS011;18003;-33.830;151.202;2022-07-11T14:07:59;6.62;;;4.65;;
25667;SDS011;18003;-33.830;151.202;2022-07-11T14:10:29;6.70;;;4.83;;
25667;SDS011;18003;-33.830;151.202;2022-07-11T14:12:59;6.72;;;4.90;;
25667;SDS011;18003;-33.830;151.202;2022-07-11T14:15:29;6.28;;;4.95;;
25667;SDS011;18003;-33.830;151.202;2022-07-11T14:17:59;6.12;;;5.08;;
25667;SDS011;18003;-33.830;151.202;2022-07-11T14:20:29;9.30;;;5.10;;
25667;SDS011;18003;-33.830;151.202;2022-07-11T14:22:59;6.00;;;4.40;;
25667;SDS011;18003;-33.830;151.202;2022-07-11T14:25:29;9.20;;;4.95;;
25667;SDS011;18003;-33.830;151.202;2022-07-11T14:28:00;8.60;;;5.28;;
25667;SDS011;18003;-33.830;151.202;2022-07-11T14:30:30;7.20;;;4.40;;
25667;SDS011;18003;-33.830;151.202;2022-07-11T14:35:49;7.65;;;4.75;;
25667;SDS011;18003;-33.830;151.202;2022-07-11T14:38:19;5.92;;;5.00;;
25667;SDS011;18003;-33.830;151.202;2022-07-11T14:40:49;6.05;;;4.80;;
25667;SDS011;18003;-33.830;151.202;2022-07-11T14:43:19;8.88;;;5.30;;
25667;SDS011;18003;-33.830;151.202;2022-07-11T14:45:49;6.67;;;5.17;;
25667;SDS011;18003;-33.830;151.202;2022-07-11T14:48:19;10.13;;;5.20;;
25667;SDS011;18003;-33.830;151.202;2022-07-11T14:50:49;8.98;;;5.42;;
25667;SDS011;18003;-33.830;151.202;2022-07-11T14:53:19;7.10;;;4.37;;
25667;SDS011;18003;-33.830;151.202;2022-07-11T14:55:49;6.47;;;4.37;;
25667;SDS011;18003;-33.830;151.202;2022-07-11T14:58:19;6.58;;;5.15;;
25667;SDS011;18003;-33.830;151.202;2022-07-11T15:00:49;8.15;;;5.33;;
25667;SDS011;18003;-33.830;151.202;2022-07-11T15:03:19;8.98;;;4.95;;
25667;SDS011;18003;-33.830;151.202;2022-07-11T15:06:06;6.40;;;4.78;;
25667;SDS011;18003;-33.830;151.202;2022-07-11T15:08:37;6.72;;;4.83;;
25667;SDS011;18003;-33.830;151.202;2022-07-11T15:11:24;7.03;;;5.12;;
25667;SDS011;18003;-33.830;151.202;2022-07-11T15:14:11;6.58;;;4.67;;
25667;SDS011;18003;-33.830;151.202;2022-07-11T15:16:42;6.53;;;5.23;;
25667;SDS011;18003;-33.830;151.202;2022-07-11T15:19:12;9.35;;;5.25;;